Alpha, California Weather observations
Data are for observation ending at time listed.
Day Time Ave. Ave. Ave. Vector Max. Stn. Total Solar Ave. Snow
of of Air Rel. Wind Wind Wind Baro. Precip. Rad. Soil Depth
Year Day Temp. Hum. Speed Dir. Gust Pres. Temp.
2026 (PST) F % mph deg. mph mb. in. W/m2 F in.
---------------------------------------------------------------------------------------
128 7:50 52.6 16 4.6 191 7.9 790.0 0.00 275 999.0 999.0
128 8:00 53.0 15 4.4 182 7.3 790.0 0.00 294 999.0 999.0
128 8:10 52.8 15 4.2 196 7.5 790.1 0.00 311 999.0 999.0
128 8:20 53.5 15 3.4 182 6.6 790.1 0.00 329 999.0 999.0
128 8:30 54.2 15 3.2 204 7.1 790.1 0.00 346 999.0 999.0
128 8:40 54.2 14 3.5 200 7.4 790.1 0.00 363 999.0 999.0
128 8:50 54.2 14 4.8 180 8.2 790.1 0.00 379 999.0 999.0
128 9:00 54.8 14 3.8 199 7.2 790.1 0.00 394 999.0 999.0
128 9:10 55.0 14 4.0 212 7.3 790.2 0.00 407 999.0 999.0
128 9:20 55.5 14 4.4 211 8.3 790.2 0.00 420 999.0 999.0
128 9:30 55.8 13 3.6 262 7.2 790.2 0.00 432 999.0 999.0
128 9:40 56.0 16 2.9 269 6.3 790.3 0.00 442 999.0 999.0
128 9:50 56.7 18 4.0 240 7.9 790.4 0.00 453 999.0 999.0
128 10:00 56.2 17 4.5 242 9.4 790.4 0.00 464 999.0 999.0
128 10:10 56.7 16 4.0 262 8.7 790.5 0.00 476 999.0 999.0
128 10:20 57.5 18 4.7 226 9.3 790.5 0.00 450 999.0 999.0
128 10:30 57.2 18 5.1 230 9.1 790.5 0.00 507 999.0 999.0
128 10:40 57.3 20 4.4 235 10.2 790.5 0.00 477 999.0 999.0
128 10:50 58.7 20 4.1 260 7.7 790.4 0.00 472 999.0 999.0
128 11:00 57.5 20 3.5 246 7.3 790.4 0.00 426 999.0 999.0
128 11:10 58.5 20 4.9 236 11.0 790.4 0.00 494 999.0 999.0
128 11:20 57.7 20 4.0 239 9.3 790.3 0.00 520 999.0 999.0
128 11:30 59.1 24 4.1 243 9.3 790.3 0.00 520 999.0 999.0
128 11:40 58.6 23 3.9 234 9.9 790.2 0.00 521 999.0 999.0
128 11:50 58.6 25 4.5 239 11.8 790.2 0.00 523 999.0 999.0
128 12:00 59.4 24 3.5 278 8.4 790.2 0.00 522 999.0 999.0
128 12:10 58.8 24 4.9 261 10.1 790.2 0.00 521 999.0 999.0
128 12:20 59.7 24 5.4 238 11.4 790.2 0.00 521 999.0 999.0
128 12:30 59.2 21 3.3 274 8.5 790.2 0.00 516 999.0 999.0
128 12:40 60.2 24 4.8 241 11.0 790.2 0.00 513 999.0 999.0
128 12:50 60.0 25 4.7 254 10.9 790.1 0.00 508 999.0 999.0
128 13:00 60.3 25 5.0 241 16.0 790.1 0.00 501 999.0 999.0
128 13:10 60.1 26 5.8 245 10.5 790.0 0.00 495 999.0 999.0
128 13:20 59.5 27 6.1 244 12.1 790.1 0.00 487 999.0 999.0
128 13:30 60.0 28 5.3 236 10.9 790.0 0.00 479 999.0 999.0
128 13:40 59.8 30 6.2 230 11.4 790.0 0.00 470 999.0 999.0
128 13:50 60.3 30 4.8 250 10.4 790.0 0.00 460 999.0 999.0
128 14:00 59.1 31 6.1 238 10.9 789.9 0.00 449 999.0 999.0
128 14:10 59.6 32 5.2 256 11.2 789.8 0.00 438 999.0 999.0
128 14:20 59.4 32 4.8 255 10.1 789.8 0.00 426 999.0 999.0
128 14:30 59.4 32 5.8 254 10.2 789.7 0.00 414 999.0 999.0
128 14:40 60.2 32 4.1 265 8.6 789.6 0.00 400 999.0 999.0
128 14:50 59.9 33 4.6 259 10.1 789.6 0.00 386 999.0 999.0
128 15:00 60.0 33 4.8 242 9.9 789.5 0.00 365 999.0 999.0
128 15:10 59.7 33 4.8 257 9.3 789.4 0.00 265 999.0 999.0
128 15:20 58.7 35 4.0 268 9.4 789.4 0.00 247 999.0 999.0
128 15:30 59.7 34 2.7 285 8.1 789.3 0.00 218 999.0 999.0
128 15:40 60.1 33 3.7 272 8.0 789.3 0.00 194 999.0 999.0
128 15:50 60.2 33 2.2 282 5.5 789.3 0.00 238 999.0 999.0
128 16:00 59.4 33 4.4 248 9.1 789.3 0.00 18 999.0 999.0
128 16:10 59.9 33 2.8 296 9.1 789.3 0.00 79 999.0 999.0
128 16:20 60.3 33 2.5 284 6.8 789.3 0.00 147 999.0 999.0
128 16:30 60.0 34 2.3 292 7.2 789.2 0.00 219 999.0 999.0
128 16:40 59.2 31 3.3 287 6.7 789.1 0.00 201 999.0 999.0
128 16:50 59.4 31 2.6 333 6.4 789.1 0.00 183 999.0 999.0
128 17:00 59.6 32 2.3 308 7.5 789.1 0.00 164 999.0 999.0
128 17:10 59.4 32 1.9 318 4.6 789.0 0.00 145 999.0 999.0
128 17:20 59.2 35 2.2 308 5.8 789.0 0.00 104 999.0 999.0
128 17:30 59.0 37 2.3 323 6.8 789.0 0.00 107 999.0 999.0
128 17:40 58.5 39 2.3 315 6.8 789.0 0.00 93 999.0 999.0
128 17:50 57.7 41 2.2 317 7.1 789.0 0.00 77 999.0 999.0
128 18:00 57.7 42 2.5 322 4.9 788.9 0.00 62 999.0 999.0
128 18:10 56.7 43 3.1 330 6.8 789.0 0.00 49 999.0 999.0
128 18:20 55.2 46 2.9 333 6.6 788.9 0.00 24 999.0 999.0
128 18:30 54.3 47 2.7 334 6.2 789.0 0.00 11 999.0 999.0
128 18:40 53.7 48 2.1 339 5.0 788.9 0.00 9 999.0 999.0
128 18:50 52.9 50 2.3 335 4.8 788.9 0.00 5 999.0 999.0
128 19:00 52.1 52 2.1 340 3.2 788.9 0.00 3 999.0 999.0
128 19:10 51.5 53 1.7 341 3.4 789.0 0.00 1 999.0 999.0
128 19:20 50.8 55 1.7 346 2.2 789.0 0.00 0 999.0 999.0
128 19:30 50.5 56 1.8 351 3.3 789.1 0.00 0 999.0 999.0
128 19:40 50.3 56 2.0 358 3.2 789.1 0.00 0 999.0 999.0
128 19:50 50.1 56 2.3 360 3.7 789.1 0.00 0 999.0 999.0
128 20:00 50.2 56 1.8 20 3.0 789.1 0.00 0 999.0 999.0
128 20:10 51.0 52 2.7 91 6.4 789.1 0.00 0 999.0 999.0
128 20:20 51.3 52 3.8 108 5.5 789.0 0.00 0 999.0 999.0
128 20:30 50.9 53 4.2 101 5.8 789.1 0.00 0 999.0 999.0
128 20:40 51.1 52 4.4 102 6.0 789.2 0.00 0 999.0 999.0
128 20:50 51.5 51 4.3 102 5.7 789.2 0.00 0 999.0 999.0
128 21:00 51.9 49 3.3 115 4.3 789.2 0.00 0 999.0 999.0
128 21:10 52.5 43 3.5 122 5.2 789.2 0.00 0 999.0 999.0
128 21:20 53.1 38 3.2 108 5.1 789.4 0.00 0 999.0 999.0
128 21:30 53.1 38 3.3 106 4.9 789.4 0.00 0 999.0 999.0
128 21:40 52.8 37 3.0 99 5.0 789.4 0.00 0 999.0 999.0
128 21:50 53.1 32 2.0 102 3.1 789.3 0.00 0 999.0 999.0
128 22:00 53.7 26 1.4 85 2.1 789.2 0.00 0 999.0 999.0
128 22:10 54.1 23 1.1 92 2.0 789.2 0.00 0 999.0 999.0
128 22:20 54.3 23 1.4 85 2.3 789.2 0.00 0 999.0 999.0
128 22:30 54.0 21 1.7 85 3.1 789.3 0.00 0 999.0 999.0
128 22:40 53.7 22 2.2 87 4.1 789.2 0.00 0 999.0 999.0
128 22:50 53.0 29 3.1 95 5.0 789.2 0.00 0 999.0 999.0
128 23:00 53.2 29 3.3 99 6.4 789.1 0.00 0 999.0 999.0
128 23:10 53.4 29 3.3 104 5.6 789.1 0.00 0 999.0 999.0
128 23:20 53.6 28 3.2 112 5.6 789.0 0.00 0 999.0 999.0
128 23:30 53.2 30 3.4 109 5.3 789.0 0.00 0 999.0 999.0
128 23:40 53.2 30 4.1 107 6.6 789.0 0.00 0 999.0 999.0
128 23:50 53.3 30 4.2 112 6.9 789.0 0.00 0 999.0 999.0
129 0:00 53.3 30 4.3 112 6.9 788.9 0.00 0 999.0 999.0
129 0:10 53.3 30 4.3 106 7.4 789.0 0.00 0 999.0 999.0
129 0:20 53.7 28 5.0 105 9.3 788.9 0.00 0 999.0 999.0
129 0:30 53.8 28 5.3 118 8.3 788.9 0.00 0 999.0 999.0
129 0:40 53.9 27 5.5 116 8.1 788.8 0.00 0 999.0 999.0
129 0:50 54.0 27 5.4 129 10.7 788.7 0.00 0 999.0 999.0
129 1:00 54.0 27 4.5 118 7.6 788.7 0.00 0 999.0 999.0
129 1:10 53.5 28 5.0 108 8.8 788.7 0.00 0 999.0 999.0
129 1:20 53.2 29 5.1 106 9.6 788.6 0.00 0 999.0 999.0
129 1:30 52.8 31 4.4 94 8.3 788.6 0.00 0 999.0 999.0
129 1:40 52.1 32 3.7 76 6.3 788.5 0.00 0 999.0 999.0
129 1:50 52.3 34 4.2 77 11.9 788.4 0.00 0 999.0 999.0
129 2:00 52.4 34 4.8 86 9.1 788.4 0.00 0 999.0 999.0
129 2:10 52.4 34 4.6 93 8.3 788.3 0.00 0 999.0 999.0
129 2:20 52.0 35 5.0 92 9.9 788.3 0.00 0 999.0 999.0
129 2:30 51.9 36 5.2 84 9.6 788.2 0.00 0 999.0 999.0
129 2:40 51.7 37 5.3 84 8.9 788.2 0.00 0 999.0 999.0
129 2:50 51.7 37 6.2 83 10.4 788.2 0.00 0 999.0 999.0
129 3:00 51.8 37 6.8 86 12.2 788.1 0.00 0 999.0 999.0
129 3:10 51.8 37 7.2 91 15.0 788.0 0.00 0 999.0 999.0
129 3:20 51.6 37 6.7 95 11.1 788.0 0.00 0 999.0 999.0
129 3:30 51.8 37 7.3 93 12.6 788.0 0.00 0 999.0 999.0
129 3:40 51.7 37 7.6 92 15.4 788.1 0.00 0 999.0 999.0
129 3:50 51.8 37 7.7 91 14.0 788.1 0.00 0 999.0 999.0
129 4:00 51.8 37 7.7 90 14.8 788.1 0.00 0 999.0 999.0
129 4:10 51.4 38 7.5 88 12.1 788.1 0.00 0 999.0 999.0
129 4:20 51.2 39 7.5 86 13.8 788.1 0.00 0 999.0 999.0
129 4:30 51.3 38 7.6 83 12.7 788.1 0.00 0 999.0 999.0
129 4:40 50.9 39 7.3 87 12.7 788.0 0.00 0 999.0 999.0
129 4:50 50.9 39 7.6 84 13.1 788.0 0.00 1 999.0 999.0
129 5:00 50.7 39 7.9 88 13.9 788.0 0.00 2 999.0 999.0
129 5:10 50.9 37 8.0 91 14.6 788.0 0.00 4 999.0 999.0
129 5:20 51.1 36 7.7 83 13.2 788.1 0.00 7 999.0 999.0
129 5:30 51.6 34 8.0 80 13.9 788.2 0.00 20 999.0 999.0
129 5:40 52.1 33 8.1 81 12.3 788.3 0.00 22 999.0 999.0
129 5:50 52.3 32 7.7 82 12.5 788.3 0.00 15 999.0 999.0
129 6:00 52.3 31 8.1 86 14.1 788.4 0.00 18 999.0 999.0
129 6:10 52.5 31 8.1 93 14.0 788.4 0.00 21 999.0 999.0
129 6:20 52.8 30 8.2 89 14.1 788.4 0.00 16 999.0 999.0
129 6:30 53.3 29 8.8 89 17.9 788.4 0.00 29 999.0 999.0
129 6:40 53.2 30 8.6 89 14.5 788.5 0.00 36 999.0 999.0
129 6:50 53.5 29 8.7 91 17.3 788.6 0.00 85 999.0 999.0
129 7:00 53.9 29 8.8 87 17.6 788.7 0.00 174 999.0 999.0
129 7:10 54.4 29 7.8 89 13.4 788.7 0.00 194 999.0 999.0
129 7:20 54.8 29 7.8 87 14.4 788.7 0.00 213 999.0 999.0
129 7:30 55.0 28 8.3 93 15.6 788.7 0.00 232 999.0 999.0
129 7:40 55.5 29 7.9 95 17.8 788.8 0.00 251 999.0 999.0
Return to Alpha graphs page.
Western Regional Climate Center,wrcc@dri.edu